createdAt,value
2018-07-31T00:00:57.168Z,0
2018-07-31T00:02:02.091Z,0
2018-07-31T00:03:07.247Z,0
2018-07-31T00:04:12.441Z,0
2018-07-31T00:05:17.978Z,0
2018-07-31T00:06:23.151Z,0
2018-07-31T00:07:28.644Z,0
2018-07-31T00:08:33.516Z,0
2018-07-31T00:09:38.981Z,0
2018-07-31T00:10:44.148Z,0
2018-07-31T00:11:49.304Z,0
2018-07-31T00:12:54.591Z,0
2018-07-31T00:13:59.801Z,0
2018-07-31T00:15:04.945Z,0
2018-07-31T00:16:10.390Z,0
2018-07-31T00:17:15.825Z,0
2018-07-31T00:18:21.271Z,0
2018-07-31T00:19:27.071Z,0
2018-07-31T00:20:32.545Z,0
2018-07-31T00:21:37.821Z,0
2018-07-31T00:22:43.066Z,0
2018-07-31T00:23:47.983Z,0
2018-07-31T00:24:53.671Z,0
2018-07-31T00:25:58.548Z,0
2018-07-31T00:27:03.139Z,0
2018-07-31T00:28:08.666Z,0
2018-07-31T00:29:13.552Z,0
2018-07-31T00:30:19.008Z,0
2018-07-31T00:31:24.428Z,0
2018-07-31T00:32:29.337Z,0
2018-07-31T00:33:35.166Z,0
2018-07-31T00:34:40.674Z,0
2018-07-31T00:35:45.888Z,0
2018-07-31T00:36:51.286Z,0
2018-07-31T00:37:55.880Z,0
2018-07-31T00:39:01.144Z,0
2018-07-31T00:40:06.408Z,0
2018-07-31T00:41:11.282Z,0
2018-07-31T00:42:16.439Z,0
2018-07-31T00:43:21.664Z,0
2018-07-31T00:44:26.536Z,0
2018-07-31T00:45:31.711Z,0
2018-07-31T00:46:37.141Z,0
2018-07-31T00:47:42.130Z,0
2018-07-31T00:48:47.683Z,0
2018-07-31T00:49:53.121Z,0
2018-07-31T00:50:58.327Z,0
2018-07-31T00:52:04.324Z,0
2018-07-31T00:53:09.484Z,0
2018-07-31T00:54:14.637Z,0
2018-07-31T00:55:19.828Z,0
2018-07-31T00:56:25.313Z,0
2018-07-31T00:57:30.751Z,0
2018-07-31T00:58:36.180Z,0
2018-07-31T00:59:41.346Z,0
2018-07-31T01:00:46.751Z,0
2018-07-31T01:01:51.957Z,0
2018-07-31T01:02:57.122Z,0
2018-07-31T01:04:02.390Z,0
2018-07-31T01:05:07.619Z,0
2018-07-31T01:06:13.055Z,0
2018-07-31T01:07:18.492Z,0
2018-07-31T01:08:23.656Z,0
2018-07-31T01:09:29.357Z,0
2018-07-31T01:10:34.015Z,0
2018-07-31T01:11:39.480Z,0
2018-07-31T01:12:45.259Z,0
2018-07-31T01:13:50.454Z,0
2018-07-31T01:14:55.335Z,0
2018-07-31T01:16:00.779Z,0
2018-07-31T01:17:05.677Z,0
2018-07-31T01:18:11.146Z,0
2018-07-31T01:19:16.867Z,0
2018-07-31T01:20:22.083Z,0
2018-07-31T01:21:28.129Z,0
2018-07-31T01:22:32.992Z,0
2018-07-31T01:23:37.693Z,0
2018-07-31T01:24:43.065Z,0
2018-07-31T01:25:48.288Z,0
2018-07-31T01:26:53.721Z,0
2018-07-31T01:27:59.192Z,0
2018-07-31T01:29:04.353Z,0
2018-07-31T01:30:09.619Z,0
2018-07-31T01:31:15.306Z,0
2018-07-31T01:32:19.393Z,0
2018-07-31T01:33:39.652Z,0
2018-07-31T01:34:45.115Z,0
2018-07-31T01:35:50.628Z,0
2018-07-31T01:36:55.212Z,0
2018-07-31T01:38:00.701Z,0
2018-07-31T01:39:05.573Z,0
2018-07-31T01:40:10.906Z,0
2018-07-31T01:41:16.110Z,0
2018-07-31T01:42:20.717Z,0
2018-07-31T01:43:25.958Z,0
2018-07-31T01:44:31.122Z,0
2018-07-31T01:45:36.522Z,0
2018-07-31T01:46:41.736Z,0
2018-07-31T01:47:47.238Z,0
2018-07-31T01:48:52.656Z,0
2018-07-31T01:49:57.800Z,0
2018-07-31T01:51:02.954Z,0
2018-07-31T01:52:08.522Z,0
2018-07-31T01:53:12.865Z,0
2018-07-31T01:54:17.829Z,0
2018-07-31T01:55:23.321Z,0
2018-07-31T01:56:28.278Z,0
2018-07-31T01:57:34.155Z,0
2018-07-31T01:58:39.594Z,0
2018-07-31T01:59:45.395Z,0
2018-07-31T02:00:50.318Z,0
2018-07-31T02:01:55.470Z,0
2018-07-31T02:03:00.982Z,0
2018-07-31T02:04:06.819Z,0
2018-07-31T02:05:11.968Z,0
2018-07-31T02:06:17.673Z,0
2018-07-31T02:07:23.274Z,0
2018-07-31T02:08:28.713Z,0
2018-07-31T02:09:34.504Z,0
2018-07-31T02:10:39.644Z,0
2018-07-31T02:11:45.089Z,0
2018-07-31T02:12:50.870Z,0
2018-07-31T02:13:56.007Z,0
2018-07-31T02:15:01.160Z,0
2018-07-31T02:16:06.118Z,0
2018-07-31T02:17:11.021Z,0
2018-07-31T02:18:15.962Z,0
2018-07-31T02:19:21.130Z,0
2018-07-31T02:20:26.308Z,0
2018-07-31T02:21:31.792Z,0
2018-07-31T02:22:36.661Z,0
2018-07-31T02:23:41.256Z,0
2018-07-31T02:24:46.484Z,0
2018-07-31T02:25:51.915Z,0
2018-07-31T02:26:57.380Z,0
2018-07-31T02:28:02.650Z,0
2018-07-31T02:29:08.200Z,0
2018-07-31T02:30:13.648Z,0
2018-07-31T02:31:19.172Z,0
2018-07-31T02:32:24.334Z,0
2018-07-31T02:33:29.761Z,0
2018-07-31T02:34:34.906Z,0
2018-07-31T02:35:40.408Z,0
2018-07-31T02:36:45.841Z,0
2018-07-31T02:37:50.702Z,0
2018-07-31T02:38:55.953Z,0
2018-07-31T02:40:01.889Z,0
2018-07-31T02:41:07.459Z,0
2018-07-31T02:42:12.364Z,0
2018-07-31T02:43:17.936Z,0
2018-07-31T02:44:23.107Z,0
2018-07-31T02:45:28.618Z,0
2018-07-31T02:46:33.800Z,0
2018-07-31T02:47:39.006Z,0
2018-07-31T02:48:44.383Z,0
2018-07-31T02:49:49.543Z,0
2018-07-31T02:50:54.974Z,0
2018-07-31T02:52:00.762Z,0
2018-07-31T02:53:06.281Z,0
2018-07-31T02:54:11.777Z,0
2018-07-31T02:55:17.460Z,0
2018-07-31T02:56:22.684Z,0
2018-07-31T02:57:28.374Z,0
2018-07-31T02:58:33.618Z,0
2018-07-31T02:59:38.757Z,0
2018-07-31T03:00:44.294Z,0
2018-07-31T03:01:49.825Z,0
2018-07-31T03:02:54.970Z,0
2018-07-31T03:04:00.674Z,0
2018-07-31T03:05:05.884Z,0
2018-07-31T03:06:11.054Z,0
2018-07-31T03:07:15.979Z,0
2018-07-31T03:08:21.125Z,0
2018-07-31T03:09:27.519Z,0
2018-07-31T03:10:32.955Z,0
2018-07-31T03:11:38.146Z,0
2018-07-31T03:12:44.023Z,0
2018-07-31T03:13:49.179Z,0
2018-07-31T03:14:54.419Z,0
2018-07-31T03:15:59.541Z,0
2018-07-31T03:17:04.404Z,0
2018-07-31T03:18:09.873Z,0
2018-07-31T03:19:15.124Z,0
2018-07-31T03:20:20.650Z,0
2018-07-31T03:21:27.017Z,0
2018-07-31T03:22:31.588Z,0
2018-07-31T03:23:36.497Z,0
2018-07-31T03:24:42.224Z,0
2018-07-31T03:25:47.097Z,0
2018-07-31T03:26:51.717Z,0
2018-07-31T03:27:57.724Z,0
2018-07-31T03:29:02.876Z,0
2018-07-31T03:30:08.325Z,0
2018-07-31T03:31:13.779Z,0
2018-07-31T03:32:18.931Z,0
2018-07-31T03:33:24.702Z,0
2018-07-31T03:34:44.758Z,0
2018-07-31T03:35:49.689Z,0
2018-07-31T03:36:54.956Z,0
2018-07-31T03:38:00.383Z,0
2018-07-31T03:39:05.020Z,0
2018-07-31T03:40:10.699Z,0
2018-07-31T03:41:15.842Z,0
2018-07-31T03:42:20.984Z,0
2018-07-31T03:43:26.244Z,0
2018-07-31T03:44:31.159Z,0
2018-07-31T03:45:36.800Z,0
2018-07-31T03:46:41.740Z,0
2018-07-31T03:47:46.597Z,0
2018-07-31T03:48:52.332Z,0
2018-07-31T03:49:57.678Z,0
2018-07-31T03:51:02.237Z,0
2018-07-31T03:52:08.025Z,0
2018-07-31T03:53:13.482Z,0
2018-07-31T03:54:18.908Z,0
2018-07-31T03:55:24.471Z,0
2018-07-31T03:56:29.950Z,0
2018-07-31T03:57:35.523Z,0
2018-07-31T03:58:40.164Z,0
2018-07-31T03:59:45.332Z,0
2018-07-31T04:00:50.207Z,0
2018-07-31T04:01:55.058Z,0
2018-07-31T04:03:00.558Z,0
2018-07-31T04:04:05.752Z,0
2018-07-31T04:05:10.929Z,0
2018-07-31T04:06:15.817Z,0
2018-07-31T04:07:21.593Z,0
2018-07-31T04:08:27.028Z,0
2018-07-31T04:09:32.565Z,0
2018-07-31T04:10:37.767Z,0
2018-07-31T04:11:42.689Z,0
2018-07-31T04:12:48.191Z,0
2018-07-31T04:13:53.349Z,0
2018-07-31T04:14:58.487Z,0
2018-07-31T04:16:03.612Z,0
2018-07-31T04:17:09.367Z,6
2018-07-31T04:18:14.679Z,6
2018-07-31T04:19:19.816Z,6
2018-07-31T04:20:25.115Z,6
2018-07-31T04:21:30.510Z,6
2018-07-31T04:22:35.659Z,6
2018-07-31T04:23:40.594Z,6
2018-07-31T04:24:46.425Z,6
2018-07-31T04:25:51.566Z,6
2018-07-31T04:26:56.439Z,6
2018-07-31T04:28:02.114Z,6
2018-07-31T04:29:05.949Z,6
2018-07-31T04:30:11.316Z,6
2018-07-31T04:31:17.192Z,6
2018-07-31T04:32:22.722Z,6
2018-07-31T04:33:28.713Z,6
2018-07-31T04:34:34.155Z,6
2018-07-31T04:35:39.383Z,6
2018-07-31T04:36:45.030Z,6
2018-07-31T04:37:50.461Z,6
2018-07-31T04:38:55.388Z,6
2018-07-31T04:40:00.905Z,6
2018-07-31T04:41:05.537Z,24
2018-07-31T04:42:10.774Z,24
2018-07-31T04:43:16.519Z,24
2018-07-31T04:44:21.385Z,24
2018-07-31T04:45:27.413Z,24
2018-07-31T04:46:32.313Z,24
2018-07-31T04:47:37.743Z,24
2018-07-31T04:48:43.294Z,24
2018-07-31T04:49:48.155Z,24
2018-07-31T04:50:53.064Z,24
2018-07-31T04:51:58.491Z,24
2018-07-31T04:53:03.226Z,24
2018-07-31T04:54:08.451Z,24
2018-07-31T04:55:13.872Z,24
2018-07-31T04:56:19.021Z,24
2018-07-31T04:57:24.197Z,24
2018-07-31T04:58:44.321Z,24
2018-07-31T04:59:49.488Z,24
2018-07-31T05:00:54.982Z,24
2018-07-31T05:02:00.424Z,40
2018-07-31T05:03:05.581Z,40
2018-07-31T05:04:11.284Z,40
2018-07-31T05:05:16.440Z,40
2018-07-31T05:06:21.898Z,40
2018-07-31T05:07:27.867Z,40
2018-07-31T05:08:32.732Z,40
2018-07-31T05:09:38.159Z,40
2018-07-31T05:10:43.109Z,40
2018-07-31T05:11:48.280Z,40
2018-07-31T05:12:53.474Z,40
2018-07-31T05:13:58.389Z,40
2018-07-31T05:15:03.555Z,40
2018-07-31T05:16:08.213Z,40
2018-07-31T05:17:13.681Z,40
2018-07-31T05:18:19.061Z,40
2018-07-31T05:19:25.163Z,40
2018-07-31T05:20:30.320Z,55
2018-07-31T05:21:36.148Z,55
2018-07-31T05:22:41.388Z,55
2018-07-31T05:23:46.914Z,31
2018-07-31T05:24:52.367Z,31
2018-07-31T05:25:57.521Z,31
2018-07-31T05:27:02.161Z,31
2018-07-31T05:28:07.960Z,31
2018-07-31T05:29:13.391Z,31
2018-07-31T05:30:19.103Z,31
2018-07-31T05:31:24.796Z,31
2018-07-31T05:32:29.853Z,31
2018-07-31T05:33:35.887Z,31
2018-07-31T05:34:40.760Z,31
2018-07-31T05:35:45.966Z,31
2018-07-31T05:36:51.663Z,31
2018-07-31T05:37:55.676Z,31
2018-07-31T05:39:01.157Z,31
2018-07-31T05:40:06.271Z,48
2018-07-31T05:41:11.756Z,48
2018-07-31T05:42:16.404Z,48
2018-07-31T05:43:20.967Z,48
2018-07-31T05:44:25.556Z,48
2018-07-31T05:45:30.967Z,48
2018-07-31T05:46:36.119Z,48
2018-07-31T05:47:41.348Z,48
2018-07-31T05:48:46.217Z,48
2018-07-31T05:49:51.368Z,48
2018-07-31T05:50:56.617Z,48
2018-07-31T05:52:02.401Z,48
2018-07-31T05:53:07.890Z,48
2018-07-31T05:54:13.121Z,48
2018-07-31T05:55:18.895Z,48
2018-07-31T05:56:24.109Z,48
2018-07-31T05:57:29.535Z,48
2018-07-31T05:58:35.003Z,48
2018-07-31T05:59:40.452Z,48
2018-07-31T06:00:45.882Z,48
2018-07-31T06:01:50.745Z,48
2018-07-31T06:02:55.946Z,48
2018-07-31T06:04:01.573Z,64
2018-07-31T06:05:06.169Z,64
2018-07-31T06:06:11.065Z,64
2018-07-31T06:07:16.227Z,64
2018-07-31T06:08:21.456Z,64
2018-07-31T06:09:27.179Z,64
2018-07-31T06:10:31.787Z,64
2018-07-31T06:11:36.966Z,64
2018-07-31T06:12:42.091Z,64
2018-07-31T06:13:47.576Z,64
2018-07-31T06:14:52.716Z,64
2018-07-31T06:15:57.951Z,64
2018-07-31T06:17:02.930Z,64
2018-07-31T06:18:07.818Z,64
2018-07-31T06:19:12.809Z,64
2018-07-31T06:20:17.675Z,64
2018-07-31T06:21:23.114Z,64
2018-07-31T06:22:28.742Z,64
2018-07-31T06:23:33.879Z,80
2018-07-31T06:24:39.094Z,80
2018-07-31T06:25:44.480Z,80
2018-07-31T06:26:49.359Z,80
2018-07-31T06:27:54.569Z,55
2018-07-31T06:28:59.777Z,55
2018-07-31T06:30:04.733Z,55
2018-07-31T06:31:09.672Z,55
2018-07-31T06:32:15.120Z,55
2018-07-31T06:33:20.270Z,55
2018-07-31T06:34:25.543Z,55
2018-07-31T06:35:29.953Z,55
2018-07-31T06:36:35.354Z,55
2018-07-31T06:37:39.938Z,55
2018-07-31T06:38:45.385Z,55
2018-07-31T06:39:51.165Z,55
2018-07-31T06:40:56.039Z,72
2018-07-31T06:42:01.283Z,72
2018-07-31T06:43:06.809Z,72
2018-07-31T06:44:11.951Z,72
2018-07-31T06:45:17.119Z,72
2018-07-31T06:46:21.897Z,72
2018-07-31T06:47:27.111Z,72
2018-07-31T06:48:32.390Z,72
2018-07-31T06:49:37.839Z,72
2018-07-31T06:50:42.421Z,72
2018-07-31T06:51:48.146Z,72
2018-07-31T06:52:53.358Z,72
2018-07-31T06:53:58.313Z,72
2018-07-31T06:55:03.041Z,72
2018-07-31T06:56:08.491Z,88
2018-07-31T06:57:13.098Z,88
2018-07-31T06:58:18.792Z,88
2018-07-31T06:59:24.305Z,88
2018-07-31T07:00:29.374Z,88
2018-07-31T07:01:34.524Z,88
2018-07-31T07:02:40.200Z,88
2018-07-31T07:03:45.603Z,88
2018-07-31T07:04:50.847Z,88
2018-07-31T07:05:56.060Z,88
2018-07-31T07:07:01.752Z,88
2018-07-31T07:08:07.209Z,88
2018-07-31T07:09:12.453Z,88
2018-07-31T07:10:18.016Z,88
2018-07-31T07:11:22.886Z,79
2018-07-31T07:12:28.843Z,79
2018-07-31T07:13:33.994Z,79
2018-07-31T07:14:39.208Z,79
2018-07-31T07:15:44.932Z,79
2018-07-31T07:16:49.807Z,79
2018-07-31T07:17:54.959Z,79
2018-07-31T07:19:00.465Z,79
2018-07-31T07:20:05.629Z,79
2018-07-31T07:21:10.499Z,79
2018-07-31T07:22:16.360Z,79
2018-07-31T07:23:21.536Z,79
2018-07-31T07:24:26.923Z,79
2018-07-31T07:25:32.368Z,79
2018-07-31T07:26:37.437Z,79
2018-07-31T07:27:43.116Z,79
2018-07-31T07:28:48.264Z,79
2018-07-31T07:29:53.691Z,79
2018-07-31T07:30:59.163Z,79
2018-07-31T07:32:03.811Z,79
2018-07-31T07:33:09.243Z,79
2018-07-31T07:34:14.697Z,79
2018-07-31T07:35:19.641Z,79
2018-07-31T07:36:24.250Z,79
2018-07-31T07:37:44.598Z,79
2018-07-31T07:38:49.460Z,79
2018-07-31T07:39:54.758Z,79
2018-07-31T07:40:59.929Z,79
2018-07-31T07:42:05.078Z,79
2018-07-31T07:43:10.484Z,79
2018-07-31T07:44:15.703Z,79
2018-07-31T07:45:20.843Z,79
2018-07-31T07:46:26.344Z,88
2018-07-31T07:47:31.263Z,64
2018-07-31T07:48:37.101Z,88
2018-07-31T07:49:42.040Z,62
2018-07-31T07:50:47.536Z,79
2018-07-31T07:51:52.677Z,79
2018-07-31T07:52:57.887Z,79
2018-07-31T07:54:02.997Z,64
2018-07-31T07:55:09.339Z,79
2018-07-31T07:56:13.928Z,72
2018-07-31T07:57:19.018Z,79
2018-07-31T07:58:24.798Z,55
2018-07-31T07:59:30.282Z,55
2018-07-31T08:00:35.673Z,48
2018-07-31T08:01:40.826Z,55
2018-07-31T08:02:45.986Z,62
2018-07-31T08:03:51.747Z,55
2018-07-31T08:04:57.337Z,79
2018-07-31T08:06:02.542Z,62
2018-07-31T08:07:07.393Z,79
2018-07-31T08:08:12.597Z,79
2018-07-31T08:09:17.467Z,80
2018-07-31T08:10:22.638Z,72
2018-07-31T08:11:28.081Z,72
2018-07-31T08:12:33.886Z,55
2018-07-31T08:13:39.399Z,79
2018-07-31T08:14:44.267Z,79
2018-07-31T08:15:49.674Z,79
2018-07-31T08:16:55.137Z,79
2018-07-31T08:18:00.614Z,79
2018-07-31T08:19:05.761Z,79
2018-07-31T08:20:10.919Z,79
2018-07-31T08:21:16.063Z,79
2018-07-31T08:22:21.877Z,79
2018-07-31T08:23:27.103Z,79
2018-07-31T08:24:32.051Z,95
2018-07-31T08:25:37.618Z,95
2018-07-31T08:26:42.827Z,79
2018-07-31T08:27:48.767Z,72
2018-07-31T08:28:53.612Z,79
2018-07-31T08:29:58.883Z,79
2018-07-31T08:31:04.018Z,79
2018-07-31T08:32:08.334Z,79
2018-07-31T08:33:13.832Z,79
2018-07-31T08:34:19.323Z,79
2018-07-31T08:35:24.833Z,79
2018-07-31T08:36:30.239Z,88
2018-07-31T08:37:35.668Z,79
2018-07-31T08:38:40.835Z,79
2018-07-31T08:39:46.613Z,95
2018-07-31T08:40:51.478Z,95
2018-07-31T08:41:57.229Z,95
2018-07-31T08:43:02.538Z,95
2018-07-31T08:44:07.128Z,95
2018-07-31T08:45:12.037Z,95
2018-07-31T08:46:17.479Z,95
2018-07-31T08:47:22.634Z,79
2018-07-31T08:48:28.255Z,95
2018-07-31T08:49:33.682Z,95
2018-07-31T08:50:38.824Z,79
2018-07-31T08:51:44.305Z,95
2018-07-31T08:52:49.242Z,95
2018-07-31T08:53:54.383Z,95
2018-07-31T08:54:59.589Z,95
2018-07-31T08:56:04.266Z,95
2018-07-31T08:57:09.446Z,95
2018-07-31T08:58:14.392Z,95
2018-07-31T08:59:19.928Z,112
2018-07-31T09:00:25.857Z,112
2018-07-31T09:01:30.779Z,112
2018-07-31T09:02:35.722Z,112
2018-07-31T09:03:41.128Z,86
2018-07-31T09:04:46.703Z,86
2018-07-31T09:05:51.660Z,95
2018-07-31T09:06:57.447Z,86
2018-07-31T09:08:02.111Z,86
2018-07-31T09:09:07.789Z,86
2018-07-31T09:10:13.360Z,86
2018-07-31T09:11:18.818Z,103
2018-07-31T09:12:24.250Z,103
2018-07-31T09:13:30.394Z,103
2018-07-31T09:14:35.258Z,103
2018-07-31T09:15:40.869Z,103
2018-07-31T09:16:45.788Z,103
2018-07-31T09:17:51.274Z,103
2018-07-31T09:18:56.780Z,103
2018-07-31T09:20:01.944Z,103
2018-07-31T09:21:06.837Z,119
2018-07-31T09:22:12.125Z,79
2018-07-31T09:23:17.838Z,72
2018-07-31T09:24:23.124Z,103
2018-07-31T09:25:28.861Z,119
2018-07-31T09:26:34.079Z,92
2018-07-31T09:27:39.476Z,119
2018-07-31T09:28:44.914Z,103
2018-07-31T09:29:50.269Z,119
2018-07-31T09:30:56.197Z,79
2018-07-31T09:32:01.871Z,103
2018-07-31T09:33:06.197Z,103
2018-07-31T09:34:11.887Z,103
2018-07-31T09:35:17.319Z,103
2018-07-31T09:36:22.935Z,103
2018-07-31T09:37:27.863Z,103
2018-07-31T09:38:33.000Z,103
2018-07-31T09:39:38.685Z,103
2018-07-31T09:40:43.253Z,103
2018-07-31T09:41:48.749Z,103
2018-07-31T09:42:54.250Z,103
2018-07-31T09:43:59.412Z,103
2018-07-31T09:45:04.312Z,103
2018-07-31T09:46:09.213Z,103
2018-07-31T09:47:14.811Z,103
2018-07-31T09:48:20.244Z,103
2018-07-31T09:49:25.179Z,86
2018-07-31T09:50:30.384Z,103
2018-07-31T09:51:35.903Z,103
2018-07-31T09:52:41.461Z,103
2018-07-31T09:53:46.893Z,103
2018-07-31T09:54:52.331Z,103
2018-07-31T09:55:57.833Z,103
2018-07-31T09:57:03.041Z,103
2018-07-31T09:58:07.855Z,103
2018-07-31T09:59:13.716Z,103
2018-07-31T10:00:18.643Z,103
2018-07-31T10:01:24.341Z,103
2018-07-31T10:02:29.190Z,103
2018-07-31T10:03:34.786Z,119
2018-07-31T10:04:39.929Z,88
2018-07-31T10:05:45.116Z,103
2018-07-31T10:06:50.695Z,103
2018-07-31T10:07:55.856Z,103
2018-07-31T10:09:00.710Z,119
2018-07-31T10:10:05.559Z,119
2018-07-31T10:11:10.751Z,119
2018-07-31T10:12:16.130Z,119
2018-07-31T10:13:21.598Z,119
2018-07-31T10:14:27.134Z,79
2018-07-31T10:15:32.630Z,103
2018-07-31T10:16:37.585Z,103
2018-07-31T10:17:42.762Z,103
2018-07-31T10:18:48.416Z,103
2018-07-31T10:19:53.289Z,86
2018-07-31T10:20:58.473Z,86
2018-07-31T10:22:03.881Z,119
2018-07-31T10:23:08.762Z,103
2018-07-31T10:24:14.453Z,119
2018-07-31T10:25:19.752Z,119
2018-07-31T10:26:25.261Z,119
2018-07-31T10:27:31.176Z,119
2018-07-31T10:28:36.605Z,119
2018-07-31T10:29:41.519Z,119
2018-07-31T10:30:46.741Z,119
2018-07-31T10:31:52.165Z,92
2018-07-31T10:32:57.662Z,110
2018-07-31T10:34:02.786Z,110
2018-07-31T10:35:08.380Z,119
2018-07-31T10:36:13.577Z,110
2018-07-31T10:37:18.701Z,110
2018-07-31T10:38:23.567Z,110
2018-07-31T10:39:29.249Z,110
2018-07-31T10:40:34.701Z,110
2018-07-31T10:41:39.857Z,110
2018-07-31T10:42:44.985Z,127
2018-07-31T10:43:49.994Z,127
2018-07-31T10:44:55.247Z,127
2018-07-31T10:46:00.829Z,127
2018-07-31T10:47:06.158Z,110
2018-07-31T10:48:10.760Z,119
2018-07-31T10:49:16.499Z,119
2018-07-31T10:50:21.445Z,86
2018-07-31T10:51:27.201Z,119
2018-07-31T10:52:32.111Z,103
2018-07-31T10:53:37.588Z,103
2018-07-31T10:54:42.703Z,119
2018-07-31T10:55:47.949Z,95
2018-07-31T10:56:52.539Z,103
2018-07-31T10:57:58.129Z,110
2018-07-31T10:59:02.554Z,110
2018-07-31T11:00:07.766Z,110
2018-07-31T11:01:13.920Z,119
2018-07-31T11:02:19.379Z,119
2018-07-31T11:03:24.585Z,92
2018-07-31T11:04:30.594Z,92
2018-07-31T11:05:35.466Z,92
2018-07-31T11:06:40.887Z,119
2018-07-31T11:07:46.063Z,119
2018-07-31T11:08:51.236Z,119
2018-07-31T11:09:56.784Z,92
2018-07-31T11:11:02.425Z,92
2018-07-31T11:12:06.816Z,92
2018-07-31T11:13:12.348Z,119
2018-07-31T11:14:17.243Z,119
2018-07-31T11:15:22.328Z,79
2018-07-31T11:16:28.188Z,119
2018-07-31T11:17:33.392Z,119
2018-07-31T11:18:39.296Z,103
2018-07-31T11:19:44.198Z,86
2018-07-31T11:20:49.404Z,119
2018-07-31T11:21:54.385Z,119
2018-07-31T11:22:59.875Z,103
2018-07-31T11:24:05.023Z,103
2018-07-31T11:25:11.022Z,119
2018-07-31T11:26:16.453Z,103
2018-07-31T11:27:21.635Z,95
2018-07-31T11:28:41.593Z,79
2018-07-31T11:29:46.857Z,119
2018-07-31T11:30:52.234Z,103
2018-07-31T11:31:57.414Z,119
2018-07-31T11:33:02.731Z,119
2018-07-31T11:34:07.732Z,119
2018-07-31T11:35:13.169Z,110
2018-07-31T11:36:18.388Z,110
2018-07-31T11:37:23.611Z,92
2018-07-31T11:38:28.821Z,119
2018-07-31T11:39:34.785Z,119
2018-07-31T11:40:39.839Z,95
2018-07-31T11:41:44.716Z,110
2018-07-31T11:42:50.167Z,64
2018-07-31T11:43:55.672Z,110
2018-07-31T11:45:01.003Z,64
2018-07-31T11:46:06.118Z,64
2018-07-31T11:47:10.418Z,86
2018-07-31T11:48:15.300Z,86
2018-07-31T11:49:20.818Z,72
2018-07-31T11:50:25.711Z,48
2018-07-31T11:51:31.142Z,88
2018-07-31T11:52:36.001Z,92
2018-07-31T11:53:41.568Z,110
2018-07-31T11:54:46.688Z,110
2018-07-31T11:55:51.334Z,119
2018-07-31T11:56:56.887Z,119
2018-07-31T11:58:02.793Z,119
2018-07-31T11:59:08.016Z,103
2018-07-31T12:00:13.454Z,103
2018-07-31T12:01:18.886Z,103
2018-07-31T12:02:23.786Z,119
2018-07-31T12:03:29.082Z,103
2018-07-31T12:04:34.307Z,119
2018-07-31T12:05:39.748Z,119
2018-07-31T12:06:45.128Z,86
2018-07-31T12:07:49.796Z,95
2018-07-31T12:08:54.723Z,86
2018-07-31T12:10:00.106Z,103
2018-07-31T12:11:05.479Z,86
2018-07-31T12:12:10.696Z,103
2018-07-31T12:13:15.822Z,103
2018-07-31T12:14:21.335Z,103
2018-07-31T12:15:41.384Z,103
2018-07-31T12:16:46.269Z,103
2018-07-31T12:17:51.424Z,103
2018-07-31T12:18:56.344Z,103
2018-07-31T12:20:01.272Z,86
2018-07-31T12:21:06.063Z,86
2018-07-31T12:22:11.355Z,86
2018-07-31T12:23:16.304Z,86
2018-07-31T12:24:21.570Z,112
2018-07-31T12:25:41.641Z,112
2018-07-31T12:26:47.082Z,112
2018-07-31T12:27:52.616Z,112
2018-07-31T12:28:57.807Z,112
2018-07-31T12:30:02.195Z,88
2018-07-31T12:31:07.814Z,88
2018-07-31T12:32:12.741Z,88
2018-07-31T12:33:17.628Z,86
2018-07-31T12:34:22.777Z,86
2018-07-31T12:35:27.679Z,79
2018-07-31T12:36:33.562Z,103
2018-07-31T12:37:38.166Z,103
2018-07-31T12:38:43.635Z,103
2018-07-31T12:39:49.139Z,103
2018-07-31T12:40:54.488Z,103
2018-07-31T12:41:59.364Z,103
2018-07-31T12:43:04.590Z,119
2018-07-31T12:44:09.945Z,119
2018-07-31T12:45:15.518Z,112
2018-07-31T12:46:20.419Z,103
2018-07-31T12:47:25.595Z,95
2018-07-31T12:48:31.235Z,80
2018-07-31T12:49:36.516Z,72
2018-07-31T12:50:41.688Z,64
2018-07-31T12:51:46.807Z,64
2018-07-31T12:52:52.175Z,64
2018-07-31T12:53:57.396Z,86
2018-07-31T12:55:02.567Z,95
2018-07-31T12:56:06.869Z,86
2018-07-31T12:57:11.830Z,86
2018-07-31T12:58:17.297Z,112
2018-07-31T12:59:22.743Z,112
2018-07-31T13:00:27.968Z,95
2018-07-31T13:01:33.119Z,95
2018-07-31T13:02:38.608Z,55
2018-07-31T13:03:43.836Z,95
2018-07-31T13:04:48.729Z,95
2018-07-31T13:05:53.957Z,95
2018-07-31T13:06:59.810Z,95
2018-07-31T13:08:05.240Z,79
2018-07-31T13:09:09.881Z,62
2018-07-31T13:10:15.434Z,79
2018-07-31T13:11:20.618Z,79
2018-07-31T13:12:41.345Z,79
2018-07-31T13:13:46.546Z,79
2018-07-31T13:14:51.978Z,79
2018-07-31T13:15:57.187Z,79
2018-07-31T13:17:01.757Z,79
2018-07-31T13:18:06.970Z,79
2018-07-31T13:19:12.755Z,79
2018-07-31T13:20:18.201Z,79
2018-07-31T13:21:23.447Z,79
2018-07-31T13:22:29.081Z,79
2018-07-31T13:23:33.964Z,79
2018-07-31T13:24:39.354Z,79
2018-07-31T13:25:44.596Z,79
2018-07-31T13:26:49.748Z,79
2018-07-31T13:27:55.377Z,79
2018-07-31T13:29:00.574Z,79
2018-07-31T13:30:05.171Z,79
2018-07-31T13:31:10.612Z,79
2018-07-31T13:32:16.188Z,79
2018-07-31T13:33:21.664Z,79
2018-07-31T13:34:41.803Z,79
2018-07-31T13:35:46.973Z,79
2018-07-31T13:36:52.400Z,79
2018-07-31T13:37:57.833Z,79
2018-07-31T13:39:02.979Z,95
2018-07-31T13:40:08.125Z,95
2018-07-31T13:41:13.558Z,95
2018-07-31T13:42:18.722Z,95
2018-07-31T13:43:24.005Z,95
2018-07-31T13:44:29.442Z,95
2018-07-31T13:45:34.575Z,95
2018-07-31T13:46:39.717Z,95
2018-07-31T13:47:45.209Z,95
2018-07-31T13:48:50.334Z,95
2018-07-31T13:49:55.540Z,95
2018-07-31T13:51:00.762Z,95
2018-07-31T13:52:05.630Z,112
2018-07-31T13:53:11.173Z,112
2018-07-31T13:54:16.429Z,112
2018-07-31T13:55:22.184Z,112
2018-07-31T13:56:27.671Z,112
2018-07-31T13:57:33.173Z,112
2018-07-31T13:58:38.336Z,112
2018-07-31T13:59:43.489Z,112
2018-07-31T14:00:48.788Z,112
2018-07-31T14:01:53.961Z,95
2018-07-31T14:02:59.104Z,95
2018-07-31T14:04:04.681Z,95
2018-07-31T14:05:09.816Z,95
2018-07-31T14:06:14.768Z,95
2018-07-31T14:07:20.739Z,95
2018-07-31T14:08:26.188Z,95
2018-07-31T14:09:31.641Z,95
2018-07-31T14:10:36.517Z,95
2018-07-31T14:11:41.685Z,95
2018-07-31T14:12:47.619Z,95
2018-07-31T14:13:53.184Z,95
2018-07-31T14:14:58.324Z,95
2018-07-31T14:16:03.864Z,95
2018-07-31T14:17:09.142Z,95
2018-07-31T14:18:14.368Z,95
2018-07-31T14:19:19.485Z,95
2018-07-31T14:20:24.873Z,95
2018-07-31T14:21:30.576Z,95
2018-07-31T14:22:34.974Z,95
2018-07-31T14:23:40.188Z,95
2018-07-31T14:24:45.890Z,95
2018-07-31T14:25:50.754Z,95
2018-07-31T14:26:55.713Z,112
2018-07-31T14:28:01.200Z,112
2018-07-31T14:29:06.639Z,112
2018-07-31T14:30:12.122Z,112
2018-07-31T14:31:17.539Z,112
2018-07-31T14:32:21.911Z,112
2018-07-31T14:33:27.451Z,112
2018-07-31T14:34:32.994Z,112
2018-07-31T14:35:38.511Z,112
2018-07-31T14:36:44.489Z,112
2018-07-31T14:37:49.372Z,112
2018-07-31T14:38:54.535Z,112
2018-07-31T14:39:59.213Z,112
2018-07-31T14:41:04.441Z,112
2018-07-31T14:42:09.898Z,112
2018-07-31T14:43:15.403Z,112
2018-07-31T14:44:20.603Z,86
2018-07-31T14:45:26.633Z,112
2018-07-31T14:46:31.898Z,112
2018-07-31T14:47:37.044Z,112
2018-07-31T14:48:41.843Z,103
2018-07-31T14:49:47.480Z,103
2018-07-31T14:50:52.667Z,103
2018-07-31T14:51:58.541Z,103
2018-07-31T14:53:03.456Z,103
2018-07-31T14:54:08.540Z,103
2018-07-31T14:55:14.464Z,103
2018-07-31T14:56:19.960Z,103
2018-07-31T14:57:25.283Z,103
2018-07-31T14:58:30.662Z,112
2018-07-31T14:59:35.642Z,112
2018-07-31T15:00:41.187Z,112
2018-07-31T15:01:46.420Z,112
2018-07-31T15:02:51.852Z,112
2018-07-31T15:03:57.409Z,112
2018-07-31T15:05:01.737Z,128
2018-07-31T15:06:06.605Z,103
2018-07-31T15:07:11.754Z,103
2018-07-31T15:08:17.031Z,103
2018-07-31T15:09:22.172Z,103
2018-07-31T15:10:27.591Z,103
2018-07-31T15:11:33.168Z,103
2018-07-31T15:12:38.948Z,103
2018-07-31T15:13:44.142Z,103
2018-07-31T15:14:49.655Z,103
2018-07-31T15:15:54.912Z,103
2018-07-31T15:17:00.110Z,119
2018-07-31T15:18:05.000Z,119
2018-07-31T15:19:10.780Z,119
2018-07-31T15:20:15.961Z,119
2018-07-31T15:21:21.160Z,119
2018-07-31T15:22:26.904Z,119
2018-07-31T15:23:31.978Z,119
2018-07-31T15:24:37.579Z,119
2018-07-31T15:25:42.863Z,119
2018-07-31T15:26:48.069Z,119
2018-07-31T15:27:52.894Z,136
2018-07-31T15:28:58.057Z,110
2018-07-31T15:30:03.552Z,110
2018-07-31T15:31:08.543Z,127
2018-07-31T15:32:13.785Z,127
2018-07-31T15:33:18.948Z,127
2018-07-31T15:34:24.840Z,127